sensor_id;sensor_type;location;lat;lon;timestamp;pressure;altitude;pressure_sealevel;temperature;humidity
6134;BME280;3098;42.678;23.364;2023-02-28T00:00:21;95335.75;;;5.21;100.00
6134;BME280;3098;42.678;23.364;2023-02-28T00:02:49;95318.66;;;5.14;100.00
6134;BME280;3098;42.678;23.364;2023-02-28T00:05:19;95395.19;;;5.63;100.00
6134;BME280;3098;42.678;23.364;2023-02-28T00:07:47;95418.63;;;5.64;100.00
6134;BME280;3098;42.678;23.364;2023-02-28T00:10:18;95338.94;;;5.13;100.00
6134;BME280;3098;42.678;23.364;2023-02-28T00:12:46;95398.34;;;5.65;100.00
6134;BME280;3098;42.678;23.364;2023-02-28T00:15:13;95417.03;;;5.73;100.00
6134;BME280;3098;42.678;23.364;2023-02-28T00:17:41;95421.53;;;5.73;100.00
6134;BME280;3098;42.678;23.364;2023-02-28T00:20:10;95425.69;;;5.79;100.00
6134;BME280;3098;42.678;23.364;2023-02-28T00:22:40;95420.44;;;5.74;100.00
6134;BME280;3098;42.678;23.364;2023-02-28T00:25:08;95427.31;;;5.75;100.00
6134;BME280;3098;42.678;23.364;2023-02-28T00:27:38;95422.31;;;5.58;100.00
6134;BME280;3098;42.678;23.364;2023-02-28T00:30:09;95433.34;;;5.70;100.00
6134;BME280;3098;42.678;23.364;2023-02-28T00:32:37;95428.88;;;5.76;100.00
6134;BME280;3098;42.678;23.364;2023-02-28T00:35:06;95435.22;;;5.85;100.00
6134;BME280;3098;42.678;23.364;2023-02-28T00:37:34;95409.16;;;5.63;100.00
6134;BME280;3098;42.678;23.364;2023-02-28T00:40:01;95363.66;;;5.28;100.00
6134;BME280;3098;42.678;23.364;2023-02-28T00:42:30;95443.88;;;5.70;100.00
6134;BME280;3098;42.678;23.364;2023-02-28T00:44:59;95433.09;;;5.72;100.00
6134;BME280;3098;42.678;23.364;2023-02-28T00:47:27;95388.38;;;5.42;100.00
6134;BME280;3098;42.678;23.364;2023-02-28T00:49:54;95371.25;;;5.29;100.00
6134;BME280;3098;42.678;23.364;2023-02-28T00:52:21;95289.22;;;4.77;100.00
6134;BME280;3098;42.678;23.364;2023-02-28T00:54:48;95405.72;;;5.43;100.00
6134;BME280;3098;42.678;23.364;2023-02-28T00:57:15;95376.78;;;5.17;100.00
6134;BME280;3098;42.678;23.364;2023-02-28T00:59:42;95412.56;;;5.39;100.00
6134;BME280;3098;42.678;23.364;2023-02-28T01:02:11;95407.56;;;5.27;100.00
6134;BME280;3098;42.678;23.364;2023-02-28T01:04:38;95426.50;;;5.24;100.00
6134;BME280;3098;42.678;23.364;2023-02-28T01:07:06;95430.16;;;5.23;100.00
6134;BME280;3098;42.678;23.364;2023-02-28T01:09:33;95422.78;;;5.25;100.00
6134;BME280;3098;42.678;23.364;2023-02-28T01:12:00;95372.28;;;5.03;100.00
6134;BME280;3098;42.678;23.364;2023-02-28T01:14:30;95413.06;;;5.20;100.00
6134;BME280;3098;42.678;23.364;2023-02-28T01:16:57;95380.97;;;4.98;100.00
6134;BME280;3098;42.678;23.364;2023-02-28T01:19:26;95409.91;;;5.18;100.00
6134;BME280;3098;42.678;23.364;2023-02-28T01:21:54;95413.59;;;5.17;100.00
6134;BME280;3098;42.678;23.364;2023-02-28T01:24:23;95393.63;;;5.27;100.00
6134;BME280;3098;42.678;23.364;2023-02-28T01:26:50;95406.75;;;5.37;100.00
6134;BME280;3098;42.678;23.364;2023-02-28T01:29:18;95336.25;;;4.88;100.00
6134;BME280;3098;42.678;23.364;2023-02-28T01:31:45;95396.25;;;5.32;100.00
6134;BME280;3098;42.678;23.364;2023-02-28T01:34:12;95415.19;;;5.29;100.00
6134;BME280;3098;42.678;23.364;2023-02-28T01:36:41;95393.63;;;5.21;100.00
6134;BME280;3098;42.678;23.364;2023-02-28T01:39:08;95416.25;;;5.33;100.00
6134;BME280;3098;42.678;23.364;2023-02-28T01:41:36;95404.41;;;5.30;100.00
6134;BME280;3098;42.678;23.364;2023-02-28T01:44:05;95408.88;;;5.30;100.00
6134;BME280;3098;42.678;23.364;2023-02-28T01:46:34;95388.59;;;5.10;100.00
6134;BME280;3098;42.678;23.364;2023-02-28T01:49:07;95398.31;;;5.19;100.00
6134;BME280;3098;42.678;23.364;2023-02-28T01:51:39;95412.53;;;5.18;100.00
6134;BME280;3098;42.678;23.364;2023-02-28T01:54:15;95406.78;;;5.16;100.00
6134;BME280;3098;42.678;23.364;2023-02-28T01:56:47;95422.28;;;5.18;100.00
6134;BME280;3098;42.678;23.364;2023-02-28T01:59:20;95398.84;;;5.01;100.00
6134;BME280;3098;42.678;23.364;2023-02-28T02:01:49;95328.09;;;4.70;100.00
6134;BME280;3098;42.678;23.364;2023-02-28T02:04:16;95420.16;;;5.15;100.00
6134;BME280;3098;42.678;23.364;2023-02-28T02:06:46;95347.56;;;4.74;100.00
6134;BME280;3098;42.678;23.364;2023-02-28T02:09:17;95377.25;;;4.94;100.00
6134;BME280;3098;42.678;23.364;2023-02-28T02:11:47;95417.28;;;5.21;100.00
6134;BME280;3098;42.678;23.364;2023-02-28T02:14:28;95413.88;;;5.21;100.00
6134;BME280;3098;42.678;23.364;2023-02-28T02:17:08;95398.31;;;5.19;100.00
6134;BME280;3098;42.678;23.364;2023-02-28T02:20:04;95384.63;;;5.02;100.00
6134;BME280;3098;42.678;23.364;2023-02-28T02:23:08;95328.59;;;4.67;100.00
6134;BME280;3098;42.678;23.364;2023-02-28T02:25:49;95384.09;;;4.90;100.00
6134;BME280;3098;42.678;23.364;2023-02-28T02:28:42;95398.56;;;4.98;100.00
6134;BME280;3098;42.678;23.364;2023-02-28T02:31:27;95350.94;;;4.59;100.00
6134;BME280;3098;42.678;23.364;2023-02-28T02:34:25;95410.13;;;4.92;100.00
6134;BME280;3098;42.678;23.364;2023-02-28T02:36:58;95412.22;;;5.00;100.00
6134;BME280;3098;42.678;23.364;2023-02-28T02:39:32;95399.38;;;4.98;100.00
6134;BME280;3098;42.678;23.364;2023-02-28T02:42:11;95414.91;;;5.05;100.00
6134;BME280;3098;42.678;23.364;2023-02-28T02:44:44;95403.31;;;5.01;100.00
6134;BME280;3098;42.678;23.364;2023-02-28T02:47:15;95401.19;;;5.03;100.00
6134;BME280;3098;42.678;23.364;2023-02-28T02:49:47;95417.81;;;5.18;100.00
6134;BME280;3098;42.678;23.364;2023-02-28T02:52:18;95420.44;;;5.29;100.00
6134;BME280;3098;42.678;23.364;2023-02-28T02:54:48;95417.28;;;5.21;100.00
6134;BME280;3098;42.678;23.364;2023-02-28T02:57:23;95387.25;;;4.87;100.00
6134;BME280;3098;42.678;23.364;2023-02-28T02:59:53;95428.84;;;5.26;100.00
6134;BME280;3098;42.678;23.364;2023-02-28T03:02:22;95434.13;;;5.31;100.00
6134;BME280;3098;42.678;23.364;2023-02-28T03:04:56;95444.91;;;5.29;100.00
6134;BME280;3098;42.678;23.364;2023-02-28T03:07:27;95452.56;;;5.36;100.00
6134;BME280;3098;42.678;23.364;2023-02-28T03:09:56;95452.00;;;5.34;100.00
6134;BME280;3098;42.678;23.364;2023-02-28T03:12:40;95451.19;;;5.18;100.00
6134;BME280;3098;42.678;23.364;2023-02-28T03:15:13;95436.44;;;5.12;100.00
6134;BME280;3098;42.678;23.364;2023-02-28T03:17:55;95448.81;;;5.06;100.00
6134;BME280;3098;42.678;23.364;2023-02-28T03:20:35;95435.38;;;5.03;100.00
6134;BME280;3098;42.678;23.364;2023-02-28T03:23:16;95458.00;;;5.04;100.00
6134;BME280;3098;42.678;23.364;2023-02-28T03:25:55;95446.69;;;5.03;100.00
6134;BME280;3098;42.678;23.364;2023-02-28T03:28:31;95465.41;;;5.22;100.00
6134;BME280;3098;42.678;23.364;2023-02-28T03:31:03;95474.13;;;5.38;100.00
6134;BME280;3098;42.678;23.364;2023-02-28T03:33:39;95467.25;;;5.32;100.00
6134;BME280;3098;42.678;23.364;2023-02-28T03:36:13;95453.56;;;5.19;100.00
6134;BME280;3098;42.678;23.364;2023-02-28T03:38:44;95479.66;;;5.36;100.00
6134;BME280;3098;42.678;23.364;2023-02-28T03:41:14;95428.53;;;4.97;100.00
6134;BME280;3098;42.678;23.364;2023-02-28T03:43:49;95483.31;;;5.30;100.00
6134;BME280;3098;42.678;23.364;2023-02-28T03:46:20;95482.22;;;5.21;100.00
6134;BME280;3098;42.678;23.364;2023-02-28T03:48:51;95486.47;;;5.27;100.00
6134;BME280;3098;42.678;23.364;2023-02-28T03:51:23;95467.19;;;5.06;100.00
6134;BME280;3098;42.678;23.364;2023-02-28T03:53:53;95465.13;;;5.18;100.00
6134;BME280;3098;42.678;23.364;2023-02-28T03:56:24;95437.19;;;4.97;100.00
6134;BME280;3098;42.678;23.364;2023-02-28T03:58:56;95423.75;;;4.84;100.00
6134;BME280;3098;42.678;23.364;2023-02-28T04:01:30;95496.97;;;5.27;100.00
6134;BME280;3098;42.678;23.364;2023-02-28T04:03:59;95494.63;;;5.31;100.00
6134;BME280;3098;42.678;23.364;2023-02-28T04:06:32;95501.44;;;5.32;100.00
6134;BME280;3098;42.678;23.364;2023-02-28T04:09:00;95493.56;;;5.27;100.00
6134;BME280;3098;42.678;23.364;2023-02-28T04:11:33;95493.56;;;5.21;100.00
6134;BME280;3098;42.678;23.364;2023-02-28T04:14:02;95461.69;;;5.08;100.00
6134;BME280;3098;42.678;23.364;2023-02-28T04:16:30;95487.78;;;5.25;100.00
6134;BME280;3098;42.678;23.364;2023-02-28T04:18:58;95433.22;;;4.80;100.00
6134;BME280;3098;42.678;23.364;2023-02-28T04:21:29;95470.91;;;5.15;100.00
6134;BME280;3098;42.678;23.364;2023-02-28T04:23:57;95450.91;;;5.09;100.00
6134;BME280;3098;42.678;23.364;2023-02-28T04:26:28;95471.44;;;5.22;100.00
6134;BME280;3098;42.678;23.364;2023-02-28T04:28:56;95482.25;;;5.26;100.00
6134;BME280;3098;42.678;23.364;2023-02-28T04:31:23;95486.19;;;5.23;100.00
6134;BME280;3098;42.678;23.364;2023-02-28T04:33:51;95488.28;;;5.16;100.00
6134;BME280;3098;42.678;23.364;2023-02-28T04:36:19;95466.41;;;5.01;100.00
6134;BME280;3098;42.678;23.364;2023-02-28T04:38:49;95476.13;;;4.95;100.00
6134;BME280;3098;42.678;23.364;2023-02-28T04:41:18;95373.38;;;4.25;100.00
6134;BME280;3098;42.678;23.364;2023-02-28T04:43:46;95478.72;;;4.85;100.00
6134;BME280;3098;42.678;23.364;2023-02-28T04:46:13;95504.47;;;4.88;100.00
6134;BME280;3098;42.678;23.364;2023-02-28T04:48:41;95379.34;;;4.05;100.00
6134;BME280;3098;42.678;23.364;2023-02-28T04:51:10;95514.16;;;4.78;100.00
6134;BME280;3098;42.678;23.364;2023-02-28T04:53:40;95512.31;;;4.78;100.00
6134;BME280;3098;42.678;23.364;2023-02-28T04:56:14;95498.38;;;4.78;100.00
6134;BME280;3098;42.678;23.364;2023-02-28T04:58:46;95521.28;;;4.82;100.00
6134;BME280;3098;42.678;23.364;2023-02-28T05:01:19;95473.81;;;4.52;100.00
6134;BME280;3098;42.678;23.364;2023-02-28T05:03:48;95516.53;;;4.79;100.00
6134;BME280;3098;42.678;23.364;2023-02-28T05:06:16;95512.31;;;4.78;100.00
6134;BME280;3098;42.678;23.364;2023-02-28T05:08:44;95505.22;;;4.79;100.00
6134;BME280;3098;42.678;23.364;2023-02-28T05:11:18;95516.56;;;4.84;100.00
6134;BME280;3098;42.678;23.364;2023-02-28T05:13:47;95523.63;;;4.84;100.00
6134;BME280;3098;42.678;23.364;2023-02-28T05:16:15;95482.81;;;4.66;100.00
6134;BME280;3098;42.678;23.364;2023-02-28T05:18:44;95527.34;;;4.88;100.00
6134;BME280;3098;42.678;23.364;2023-02-28T05:21:33;95502.63;;;4.84;100.00
6134;BME280;3098;42.678;23.364;2023-02-28T05:24:02;95535.25;;;4.98;100.00
6134;BME280;3098;42.678;23.364;2023-02-28T05:26:34;95534.22;;;4.99;100.00
6134;BME280;3098;42.678;23.364;2023-02-28T05:29:02;95507.66;;;4.90;100.00
6134;BME280;3098;42.678;23.364;2023-02-28T05:31:29;95524.47;;;4.94;100.00
6134;BME280;3098;42.678;23.364;2023-02-28T05:33:56;95486.22;;;4.61;100.00
6134;BME280;3098;42.678;23.364;2023-02-28T05:36:25;95528.91;;;4.84;100.00
6134;BME280;3098;42.678;23.364;2023-02-28T05:38:52;95482.28;;;4.64;100.00
6134;BME280;3098;42.678;23.364;2023-02-28T05:41:20;95508.66;;;4.79;100.00
6134;BME280;3098;42.678;23.364;2023-02-28T05:43:49;95551.91;;;5.18;100.00
6134;BME280;3098;42.678;23.364;2023-02-28T05:46:17;95546.97;;;5.32;100.00
6134;BME280;3098;42.678;23.364;2023-02-28T05:48:47;95558.81;;;5.35;100.00
6134;BME280;3098;42.678;23.364;2023-02-28T05:51:16;95546.72;;;5.39;100.00
6134;BME280;3098;42.678;23.364;2023-02-28T05:53:44;95553.00;;;5.33;100.00
6134;BME280;3098;42.678;23.364;2023-02-28T05:56:12;95546.16;;;5.32;100.00
6134;BME280;3098;42.678;23.364;2023-02-28T05:58:41;95541.25;;;5.65;100.00
6134;BME280;3098;42.678;23.364;2023-02-28T06:01:34;95561.34;;;6.37;100.00
6134;BME280;3098;42.678;23.364;2023-02-28T06:04:04;95531.25;;;5.82;100.00
6134;BME280;3098;42.678;23.364;2023-02-28T06:06:33;95406.50;;;5.63;100.00
6134;BME280;3098;42.678;23.364;2023-02-28T06:09:01;95559.25;;;5.99;100.00
6134;BME280;3098;42.678;23.364;2023-02-28T06:11:30;95557.88;;;5.81;100.00
6134;BME280;3098;42.678;23.364;2023-02-28T06:13:59;95527.28;;;5.55;100.00
6134;BME280;3098;42.678;23.364;2023-02-28T06:16:30;95554.97;;;5.67;100.00
6134;BME280;3098;42.678;23.364;2023-02-28T06:19:01;95479.56;;;5.06;100.00
6134;BME280;3098;42.678;23.364;2023-02-28T06:21:31;95502.22;;;5.22;100.00
6134;BME280;3098;42.678;23.364;2023-02-28T06:23:58;95554.91;;;5.57;100.00
6134;BME280;3098;42.678;23.364;2023-02-28T06:26:26;95539.91;;;5.53;100.00
6134;BME280;3098;42.678;23.364;2023-02-28T06:28:57;95535.97;;;5.55;100.00
6134;BME280;3098;42.678;23.364;2023-02-28T06:31:27;95551.78;;;5.65;100.00
6134;BME280;3098;42.678;23.364;2023-02-28T06:33:55;95434.50;;;4.77;100.00
6134;BME280;3098;42.678;23.364;2023-02-28T06:36:22;95559.94;;;5.59;100.00
6134;BME280;3098;42.678;23.364;2023-02-28T06:38:50;95559.66;;;5.60;100.00
6134;BME280;3098;42.678;23.364;2023-02-28T06:41:21;95516.22;;;5.48;100.00
6134;BME280;3098;42.678;23.364;2023-02-28T06:43:50;95560.97;;;5.68;100.00
6134;BME280;3098;42.678;23.364;2023-02-28T06:46:17;95500.94;;;5.40;100.00
6134;BME280;3098;42.678;23.364;2023-02-28T06:48:47;95503.06;;;5.48;100.00
6134;BME280;3098;42.678;23.364;2023-02-28T06:51:17;95548.16;;;5.87;100.00
6134;BME280;3098;42.678;23.364;2023-02-28T06:53:46;95540.47;;;5.75;100.00
6134;BME280;3098;42.678;23.364;2023-02-28T06:56:15;95517.28;;;5.57;100.00
6134;BME280;3098;42.678;23.364;2023-02-28T06:58:46;95559.66;;;5.65;100.00
6134;BME280;3098;42.678;23.364;2023-02-28T07:01:16;95550.22;;;5.74;100.00
6134;BME280;3098;42.678;23.364;2023-02-28T07:03:44;95558.69;;;5.97;100.00
6134;BME280;3098;42.678;23.364;2023-02-28T07:06:13;95460.16;;;5.32;100.00
6134;BME280;3098;42.678;23.364;2023-02-28T07:08:43;95555.00;;;5.98;100.00
6134;BME280;3098;42.678;23.364;2023-02-28T07:11:10;95539.72;;;6.05;100.00
6134;BME280;3098;42.678;23.364;2023-02-28T07:13:38;95406.75;;;5.06;100.00
6134;BME280;3098;42.678;23.364;2023-02-28T07:16:08;95553.16;;;6.13;100.00
6134;BME280;3098;42.678;23.364;2023-02-28T07:18:37;95532.59;;;5.75;100.00
6134;BME280;3098;42.678;23.364;2023-02-28T07:21:07;95461.22;;;5.51;100.00
6134;BME280;3098;42.678;23.364;2023-02-28T07:23:37;95541.59;;;6.09;100.00
6134;BME280;3098;42.678;23.364;2023-02-28T07:26:12;95553.69;;;6.20;100.00
6134;BME280;3098;42.678;23.364;2023-02-28T07:28:41;95507.34;;;5.89;100.00
6134;BME280;3098;42.678;23.364;2023-02-28T07:31:10;95479.69;;;5.97;100.00
6134;BME280;3098;42.678;23.364;2023-02-28T07:33:40;95528.66;;;6.43;100.00
6134;BME280;3098;42.678;23.364;2023-02-28T07:36:09;95474.94;;;6.14;100.00
6134;BME280;3098;42.678;23.364;2023-02-28T07:38:41;95545.75;;;6.66;100.00
6134;BME280;3098;42.678;23.364;2023-02-28T07:41:11;95545.41;;;6.92;100.00
6134;BME280;3098;42.678;23.364;2023-02-28T07:43:39;95521.66;;;6.92;100.00
6134;BME280;3098;42.678;23.364;2023-02-28T07:46:09;95522.34;;;7.18;100.00
6134;BME280;3098;42.678;23.364;2023-02-28T07:48:37;95545.22;;;7.38;100.00
6134;BME280;3098;42.678;23.364;2023-02-28T07:51:05;95545.00;;;7.34;100.00
6134;BME280;3098;42.678;23.364;2023-02-28T07:53:38;95372.44;;;6.38;100.00
6134;BME280;3098;42.678;23.364;2023-02-28T07:56:13;95518.94;;;7.13;100.00
6134;BME280;3098;42.678;23.364;2023-02-28T07:58:44;95467.50;;;7.15;100.00
6134;BME280;3098;42.678;23.364;2023-02-28T08:01:13;95389.13;;;6.77;100.00
6134;BME280;3098;42.678;23.364;2023-02-28T08:03:44;95409.81;;;6.99;100.00
6134;BME280;3098;42.678;23.364;2023-02-28T08:06:16;95537.41;;;7.67;100.00
6134;BME280;3098;42.678;23.364;2023-02-28T08:08:46;95440.03;;;7.21;100.00
6134;BME280;3098;42.678;23.364;2023-02-28T08:11:18;95485.53;;;7.47;100.00
6134;BME280;3098;42.678;23.364;2023-02-28T08:13:46;95390.53;;;7.08;100.00
6134;BME280;3098;42.678;23.364;2023-02-28T08:16:16;95539.34;;;8.34;100.00
6134;BME280;3098;42.678;23.364;2023-02-28T08:18:48;95446.59;;;8.30;100.00
6134;BME280;3098;42.678;23.364;2023-02-28T08:21:16;95527.59;;;9.21;100.00
6134;BME280;3098;42.678;23.364;2023-02-28T08:23:46;95480.50;;;9.37;100.00
6134;BME280;3098;42.678;23.364;2023-02-28T08:26:14;95373.16;;;8.93;100.00
6134;BME280;3098;42.678;23.364;2023-02-28T08:28:43;95535.06;;;10.12;100.00
6134;BME280;3098;42.678;23.364;2023-02-28T08:31:13;95423.22;;;9.64;100.00
6134;BME280;3098;42.678;23.364;2023-02-28T08:33:40;95348.34;;;9.08;100.00
6134;BME280;3098;42.678;23.364;2023-02-28T08:36:09;95514.00;;;10.53;100.00
6134;BME280;3098;42.678;23.364;2023-02-28T08:38:37;95495.06;;;10.73;100.00
6134;BME280;3098;42.678;23.364;2023-02-28T08:41:07;95511.09;;;10.95;100.00
6134;BME280;3098;42.678;23.364;2023-02-28T08:43:36;95530.47;;;10.96;100.00
6134;BME280;3098;42.678;23.364;2023-02-28T08:46:07;95527.81;;;10.96;100.00
6134;BME280;3098;42.678;23.364;2023-02-28T08:48:35;95532.22;;;10.87;100.00
6134;BME280;3098;42.678;23.364;2023-02-28T08:51:05;95525.50;;;10.76;100.00
6134;BME280;3098;42.678;23.364;2023-02-28T08:53:35;95540.47;;;10.85;100.00
6134;BME280;3098;42.678;23.364;2023-02-28T08:56:04;95520.81;;;11.54;100.00
6134;BME280;3098;42.678;23.364;2023-02-28T08:58:34;95503.25;;;12.25;100.00
6134;BME280;3098;42.678;23.364;2023-02-28T09:01:09;95504.91;;;12.65;100.00
6134;BME280;3098;42.678;23.364;2023-02-28T09:03:38;95530.94;;;12.46;100.00
6134;BME280;3098;42.678;23.364;2023-02-28T09:06:12;95538.88;;;11.80;100.00
6134;BME280;3098;42.678;23.364;2023-02-28T09:08:39;95502.06;;;11.73;100.00
6134;BME280;3098;42.678;23.364;2023-02-28T09:11:07;95499.75;;;12.38;100.00
6134;BME280;3098;42.678;23.364;2023-02-28T09:13:36;95530.91;;;13.39;100.00
6134;BME280;3098;42.678;23.364;2023-02-28T09:16:09;95431.25;;;12.92;100.00
6134;BME280;3098;42.678;23.364;2023-02-28T09:18:38;95467.19;;;13.11;100.00
6134;BME280;3098;42.678;23.364;2023-02-28T09:21:07;95527.66;;;12.80;100.00
6134;BME280;3098;42.678;23.364;2023-02-28T09:23:35;95507.72;;;13.31;100.00
6134;BME280;3098;42.678;23.364;2023-02-28T09:26:05;95473.22;;;12.95;100.00
6134;BME280;3098;42.678;23.364;2023-02-28T09:28:33;95450.31;;;12.77;100.00
6134;BME280;3098;42.678;23.364;2023-02-28T09:31:01;95531.84;;;13.43;100.00
6134;BME280;3098;42.678;23.364;2023-02-28T09:33:31;95520.31;;;13.56;100.00
6134;BME280;3098;42.678;23.364;2023-02-28T09:36:00;95524.50;;;13.48;100.00
6134;BME280;3098;42.678;23.364;2023-02-28T09:38:29;95516.97;;;13.42;100.00
6134;BME280;3098;42.678;23.364;2023-02-28T09:40:59;95521.06;;;13.39;100.00
6134;BME280;3098;42.678;23.364;2023-02-28T09:43:31;95492.16;;;12.85;100.00
6134;BME280;3098;42.678;23.364;2023-02-28T09:46:08;95517.16;;;13.71;100.00
6134;BME280;3098;42.678;23.364;2023-02-28T09:48:45;95452.56;;;13.91;97.26
6134;BME280;3098;42.678;23.364;2023-02-28T09:51:28;95511.03;;;13.53;100.00
6134;BME280;3098;42.678;23.364;2023-02-28T09:53:57;95466.34;;;13.33;100.00
6134;BME280;3098;42.678;23.364;2023-02-28T09:56:30;95438.47;;;13.48;98.81
6134;BME280;3098;42.678;23.364;2023-02-28T09:59:01;95528.59;;;13.54;98.44
6134;BME280;3098;42.678;23.364;2023-02-28T10:01:34;95522.78;;;13.04;100.00
6134;BME280;3098;42.678;23.364;2023-02-28T10:04:10;95505.63;;;12.80;100.00
6134;BME280;3098;42.678;23.364;2023-02-28T10:06:45;95532.22;;;12.80;100.00
6134;BME280;3098;42.678;23.364;2023-02-28T10:09:17;95479.28;;;12.78;100.00
6134;BME280;3098;42.678;23.364;2023-02-28T10:11:46;95463.03;;;13.28;100.00
6134;BME280;3098;42.678;23.364;2023-02-28T10:14:15;95507.22;;;13.29;100.00
6134;BME280;3098;42.678;23.364;2023-02-28T10:16:47;95469.56;;;13.13;100.00
6134;BME280;3098;42.678;23.364;2023-02-28T10:19:23;95509.34;;;13.83;98.33
6134;BME280;3098;42.678;23.364;2023-02-28T10:21:56;95484.72;;;13.60;98.04
6134;BME280;3098;42.678;23.364;2023-02-28T10:24:29;95475.78;;;13.48;98.51
6134;BME280;3098;42.678;23.364;2023-02-28T10:27:00;95483.13;;;13.76;96.35
6134;BME280;3098;42.678;23.364;2023-02-28T10:29:32;95491.41;;;13.41;97.40
6134;BME280;3098;42.678;23.364;2023-02-28T10:32:02;95490.00;;;13.43;97.58
6134;BME280;3098;42.678;23.364;2023-02-28T10:34:32;95419.16;;;13.34;96.21
6134;BME280;3098;42.678;23.364;2023-02-28T10:37:00;95438.59;;;14.03;93.84
6134;BME280;3098;42.678;23.364;2023-02-28T10:39:37;95489.53;;;14.61;91.63
6134;BME280;3098;42.678;23.364;2023-02-28T10:42:18;95465.06;;;14.25;93.87
6134;BME280;3098;42.678;23.364;2023-02-28T10:44:46;95458.06;;;14.84;90.13
6134;BME280;3098;42.678;23.364;2023-02-28T10:47:16;95437.59;;;14.88;87.89
6134;BME280;3098;42.678;23.364;2023-02-28T10:49:49;95409.00;;;14.51;88.12
6134;BME280;3098;42.678;23.364;2023-02-28T10:52:33;95434.44;;;14.48;88.48
6134;BME280;3098;42.678;23.364;2023-02-28T10:55:18;95408.28;;;14.33;89.43
6134;BME280;3098;42.678;23.364;2023-02-28T10:57:47;95410.84;;;14.59;88.53
6134;BME280;3098;42.678;23.364;2023-02-28T11:00:18;95438.72;;;14.23;91.26
6134;BME280;3098;42.678;23.364;2023-02-28T11:02:47;95443.72;;;14.42;91.21
6134;BME280;3098;42.678;23.364;2023-02-28T11:05:29;95383.66;;;14.19;89.04
6134;BME280;3098;42.678;23.364;2023-02-28T11:07:59;95430.00;;;14.69;86.75
6134;BME280;3098;42.678;23.364;2023-02-28T11:10:31;95419.28;;;14.06;91.24
6134;BME280;3098;42.678;23.364;2023-02-28T11:13:01;95431.94;;;14.52;89.73
6134;BME280;3098;42.678;23.364;2023-02-28T11:15:31;95366.59;;;13.86;89.91
6134;BME280;3098;42.678;23.364;2023-02-28T11:18:01;95330.91;;;13.52;89.86
6134;BME280;3098;42.678;23.364;2023-02-28T11:20:33;95435.13;;;14.02;90.85
6134;BME280;3098;42.678;23.364;2023-02-28T11:23:02;95404.44;;;13.88;92.07
6134;BME280;3098;42.678;23.364;2023-02-28T11:25:32;95436.56;;;13.57;93.17
6134;BME280;3098;42.678;23.364;2023-02-28T11:28:01;95393.41;;;13.12;96.03
6134;BME280;3098;42.678;23.364;2023-02-28T11:30:35;95385.63;;;13.33;94.23
6134;BME280;3098;42.678;23.364;2023-02-28T11:33:22;95398.78;;;13.38;94.01
6134;BME280;3098;42.678;23.364;2023-02-28T11:35:51;95335.31;;;12.49;95.26
6134;BME280;3098;42.678;23.364;2023-02-28T11:38:19;95305.50;;;12.21;96.55
6134;BME280;3098;42.678;23.364;2023-02-28T11:40:53;95422.31;;;12.88;97.77
6134;BME280;3098;42.678;23.364;2023-02-28T11:43:38;95406.59;;;12.69;99.34
6134;BME280;3098;42.678;23.364;2023-02-28T11:46:19;95444.38;;;12.80;99.54
6134;BME280;3098;42.678;23.364;2023-02-28T11:48:57;95424.81;;;12.84;99.83
6134;BME280;3098;42.678;23.364;2023-02-28T11:51:33;95189.06;;;11.62;97.66
6134;BME280;3098;42.678;23.364;2023-02-28T11:54:26;95410.47;;;13.02;98.11
6134;BME280;3098;42.678;23.364;2023-02-28T11:57:03;95320.09;;;12.41;98.36
6134;BME280;3098;42.678;23.364;2023-02-28T11:59:47;95215.44;;;11.80;97.73
6134;BME280;3098;42.678;23.364;2023-02-28T12:02:25;95217.81;;;11.90;97.05
6134;BME280;3098;42.678;23.364;2023-02-28T12:05:12;95399.22;;;13.22;95.13
6134;BME280;3098;42.678;23.364;2023-02-28T12:08:00;95314.16;;;12.35;95.93
6134;BME280;3098;42.678;23.364;2023-02-28T12:10:39;95376.59;;;12.94;96.33
6134;BME280;3098;42.678;23.364;2023-02-28T12:13:18;95338.28;;;12.47;96.47
6134;BME280;3098;42.678;23.364;2023-02-28T12:15:59;95388.75;;;12.69;98.21
6134;BME280;3098;42.678;23.364;2023-02-28T12:18:53;95405.72;;;12.82;99.35
6134;BME280;3098;42.678;23.364;2023-02-28T12:21:34;95416.06;;;12.92;99.36
6134;BME280;3098;42.678;23.364;2023-02-28T12:27:08;95395.19;;;12.77;98.76
6134;BME280;3098;42.678;23.364;2023-02-28T12:29:46;95363.25;;;11.98;100.00
6134;BME280;3098;42.678;23.364;2023-02-28T12:32:19;95326.22;;;12.02;100.00
6134;BME280;3098;42.678;23.364;2023-02-28T12:34:55;95354.31;;;12.25;99.64
6134;BME280;3098;42.678;23.364;2023-02-28T12:37:29;95378.47;;;12.46;98.81
6134;BME280;3098;42.678;23.364;2023-02-28T12:40:04;95367.91;;;12.24;99.27
6134;BME280;3098;42.678;23.364;2023-02-28T12:42:38;95423.19;;;12.35;99.72
6134;BME280;3098;42.678;23.364;2023-02-28T12:45:14;95398.31;;;12.31;100.00
6134;BME280;3098;42.678;23.364;2023-02-28T12:47:48;95353.81;;;12.15;99.43
6134;BME280;3098;42.678;23.364;2023-02-28T12:50:16;95387.00;;;12.17;99.96
6134;BME280;3098;42.678;23.364;2023-02-28T12:52:51;95389.03;;;12.20;100.00
6134;BME280;3098;42.678;23.364;2023-02-28T12:55:28;95384.97;;;12.23;99.31
6134;BME280;3098;42.678;23.364;2023-02-28T12:58:08;95390.50;;;12.35;100.00
6134;BME280;3098;42.678;23.364;2023-02-28T13:00:50;95388.16;;;12.33;98.56
6134;BME280;3098;42.678;23.364;2023-02-28T13:03:45;95385.63;;;11.97;98.33
6134;BME280;3098;42.678;23.364;2023-02-28T13:06:41;95359.84;;;11.76;100.00
6134;BME280;3098;42.678;23.364;2023-02-28T13:09:13;95395.47;;;12.28;99.84
6134;BME280;3098;42.678;23.364;2023-02-28T13:11:45;95394.88;;;12.31;99.99
6134;BME280;3098;42.678;23.364;2023-02-28T13:14:23;95349.50;;;11.96;98.90
6134;BME280;3098;42.678;23.364;2023-02-28T13:16:57;95404.22;;;12.20;99.76
6134;BME280;3098;42.678;23.364;2023-02-28T13:19:25;95333.78;;;11.64;100.00
6134;BME280;3098;42.678;23.364;2023-02-28T13:21:54;95375.66;;;12.03;100.00
6134;BME280;3098;42.678;23.364;2023-02-28T13:24:48;95352.97;;;11.75;100.00
6134;BME280;3098;42.678;23.364;2023-02-28T13:27:34;95393.06;;;12.18;100.00
6134;BME280;3098;42.678;23.364;2023-02-28T13:33:22;95387.00;;;11.95;100.00
6134;BME280;3098;42.678;23.364;2023-02-28T13:36:06;95250.94;;;11.09;100.00
6134;BME280;3098;42.678;23.364;2023-02-28T13:38:39;95388.09;;;11.94;100.00
6134;BME280;3098;42.678;23.364;2023-02-28T13:41:46;95388.19;;;11.67;100.00